Terminal Aerodrome Forecast
Issued by NWS

Home | Current Version | Previous Version | Text Only | Print | Product List | Glossary On
Versions: 1 2 3 4 5 6 7 8 9 10 11 12 13 14 15
866
FTUS45 KRIW 161601 AAB
TAFBPI
TAF AMD
KBPI 161601Z 1616/1712 VRB05KT P6SM VCFG SCT002
      TEMPO 1616/1617 1 1/2SM BR
     FM161800 VRB04KT P6SM SCT200=

USA.gov is the U.S. government's official web portal to all federal, state and local government web resources and services.